Time;durP1;ratioP1;P1;durP2;ratioP2;P2;SDS_P1;SDS_P2;PMS_P1;PMS_P2;Temp;Humidity;BMP_temperature;BMP_pressure;BME280_temperature;BME280_humidity;BME280_pressure;Samples;Min_cycle;Max_cycle;Signal;HPM_P1;HPM_P2
2023/05/22 00:02:31;;;;;;;32.83;27.92;;;16.30;99.90;;;;;;7330169;32;20103;-57
2023/05/22 00:06:33;;;;;;;30.77;25.50;;;16.30;99.90;;;;;;7335602;32;20127;-56
2023/05/22 00:10:35;;;;;;;30.25;26.85;;;16.20;99.90;;;;;;7335865;32;20150;-57
2023/05/22 00:14:37;;;;;;;30.15;25.30;;;16.20;99.90;;;;;;7334882;32;20119;-56
2023/05/22 00:18:41;;;;;;;33.53;25.83;;;16.10;99.90;;;;;;7329810;32;20665;-56
2023/05/22 00:22:43;;;;;;;31.20;25.27;;;16.10;99.90;;;;;;7340040;32;20107;-57
2023/05/22 00:26:45;;;;;;;27.37;23.85;;;16.00;99.90;;;;;;7327700;32;20099;-57
2023/05/22 00:30:47;;;;;;;25.37;22.10;;;16.00;99.90;;;;;;7329031;32;20122;-57
2023/05/22 00:34:49;;;;;;;26.17;23.38;;;15.90;99.90;;;;;;7335847;32;20211;-57
2023/05/22 00:38:51;;;;;;;28.05;23.58;;;15.90;99.90;;;;;;7330148;32;20158;-56
2023/05/22 00:42:52;;;;;;;28.05;23.10;;;15.90;99.90;;;;;;7335877;32;20318;-57
2023/05/22 00:46:55;;;;;;;23.92;21.40;;;15.80;99.90;;;;;;7339474;32;20510;-56
2023/05/22 00:50:58;;;;;;;30.98;23.98;;;15.70;99.90;;;;;;7340461;32;20178;-56
2023/05/22 00:55:02;;;;;;;30.83;25.55;;;15.70;99.90;;;;;;7329246;32;20103;-57
2023/05/22 00:59:04;;;;;;;28.02;23.58;;;15.70;99.90;;;;;;7331659;32;20717;-56
2023/05/22 01:03:06;;;;;;;29.98;25.50;;;15.70;99.90;;;;;;7339453;32;20152;-56
2023/05/22 01:07:08;;;;;;;32.63;27.00;;;15.60;99.90;;;;;;7330974;32;20211;-56
2023/05/22 01:11:39;;;;;;;51.85;38.55;;;15.60;99.90;;;;;;7343016;32;20125;-57
2023/05/22 01:16:04;;;;;;;48.13;37.90;;;15.50;99.90;;;;;;7321319;32;20104;-57
2023/05/22 01:20:38;;;;;;;44.85;33.70;;;15.40;99.90;;;;;;7336779;32;20628;-57
2023/05/22 01:24:59;;;;;;;39.13;29.98;;;15.30;99.90;;;;;;7338410;32;20650;-56
2023/05/22 01:29:13;;;;;;;36.13;29.58;;;15.20;99.90;;;;;;7327400;32;20221;-57
2023/05/22 01:33:16;;;;;;;40.17;29.48;;;15.20;99.90;;;;;;7341725;32;20115;-57
2023/05/22 01:37:22;;;;;;;30.02;25.60;;;15.10;99.90;;;;;;7325088;32;21041;-55
2023/05/22 01:41:24;;;;;;;33.13;25.77;;;15.00;99.90;;;;;;7328661;32;20229;-57
2023/05/22 01:45:26;;;;;;;30.65;25.17;;;14.90;99.90;;;;;;7334239;32;20129;-57
2023/05/22 01:49:28;;;;;;;28.70;24.17;;;14.90;99.90;;;;;;7326178;32;20739;-56
2023/05/22 01:53:43;;;;;;;30.08;24.52;;;14.90;99.90;;;;;;7330454;32;20091;-56
2023/05/22 01:57:58;;;;;;;29.42;24.17;;;14.80;99.90;;;;;;7330446;32;20450;-56
2023/05/22 02:02:04;;;;;;;26.35;23.55;;;14.70;99.90;;;;;;7324400;32;20528;-56
2023/05/22 02:06:11;;;;;;;25.83;22.15;;;14.70;99.90;;;;;;7328263;32;20468;-56
2023/05/22 02:10:15;;;;;;;25.58;22.87;;;14.60;99.90;;;;;;7314181;32;20161;-56
2023/05/22 02:14:18;;;;;;;27.17;22.15;;;14.60;99.90;;;;;;7329397;32;20674;-56
2023/05/22 02:18:28;;;;;;;28.70;23.48;;;14.50;99.90;;;;;;7336349;32;20710;-55
2023/05/22 02:22:30;;;;;;;24.73;21.83;;;14.50;99.90;;;;;;7329804;32;20222;-57
2023/05/22 02:26:31;;;;;;;24.23;21.62;;;14.50;99.90;;;;;;7334462;32;20123;-57
2023/05/22 02:30:33;;;;;;;25.90;22.42;;;14.50;99.90;;;;;;7329176;32;20103;-57
2023/05/22 02:34:36;;;;;;;25.55;21.73;;;14.40;99.90;;;;;;7328361;32;20772;-56
2023/05/22 02:38:38;;;;;;;25.67;22.23;;;14.40;99.90;;;;;;7330082;32;20585;-57
2023/05/22 02:42:40;;;;;;;26.62;21.85;;;14.30;99.90;;;;;;7329344;32;20099;-56
2023/05/22 02:46:42;;;;;;;23.52;20.77;;;14.30;99.90;;;;;;7326430;32;20118;-57
2023/05/22 02:50:44;;;;;;;26.40;22.13;;;14.30;99.90;;;;;;7317806;32;20114;-57
2023/05/22 02:54:46;;;;;;;27.55;21.75;;;14.20;99.90;;;;;;7322627;32;20123;-56
2023/05/22 02:58:48;;;;;;;27.42;24.23;;;14.20;99.90;;;;;;7329716;32;20107;-55
2023/05/22 03:02:50;;;;;;;32.90;24.42;;;14.10;99.90;;;;;;7333348;32;20516;-55
2023/05/22 03:06:51;;;;;;;29.45;22.70;;;14.10;99.90;;;;;;7324651;32;20226;-56
2023/05/22 03:10:56;;;;;;;27.67;22.23;;;14.10;99.90;;;;;;7328563;32;20103;-57
2023/05/22 03:14:58;;;;;;;27.58;23.52;;;14.00;99.90;;;;;;7327783;32;20247;-56
2023/05/22 03:19:10;;;;;;;24.98;20.83;;;14.00;99.90;;;;;;7312647;32;20103;-56
2023/05/22 03:23:12;;;;;;;29.48;23.30;;;13.90;99.90;;;;;;7328279;32;20127;-57
2023/05/22 03:27:18;;;;;;;29.60;23.40;;;13.90;99.90;;;;;;7337783;32;20152;-57
2023/05/22 03:31:20;;;;;;;26.85;22.15;;;13.90;99.90;;;;;;7338415;32;20134;-55
2023/05/22 03:35:23;;;;;;;27.55;22.58;;;13.80;99.90;;;;;;7335341;32;20107;-56
2023/05/22 03:39:25;;;;;;;29.20;23.02;;;13.80;99.90;;;;;;7344078;32;20108;-56
2023/05/22 03:43:27;;;;;;;25.67;22.02;;;13.70;99.90;;;;;;7320480;32;20126;-55
2023/05/22 03:47:28;;;;;;;29.30;22.00;;;13.70;99.90;;;;;;7334763;32;20228;-56
2023/05/22 03:51:30;;;;;;;30.27;23.05;;;13.80;99.90;;;;;;7335449;32;20183;-55
2023/05/22 03:55:32;;;;;;;26.08;21.08;;;13.70;99.90;;;;;;7330867;32;20118;-57
2023/05/22 03:59:34;;;;;;;25.73;22.27;;;13.60;99.90;;;;;;7330552;32;20676;-56
2023/05/22 04:03:36;;;;;;;24.08;20.42;;;13.70;99.90;;;;;;7333000;32;20096;-56
2023/05/22 04:07:38;;;;;;;28.60;22.15;;;13.50;99.90;;;;;;7317225;32;20529;-56
2023/05/22 04:11:41;;;;;;;25.05;21.45;;;13.50;99.90;;;;;;7316826;32;20239;-55
2023/05/22 04:15:45;;;;;;;25.77;22.52;;;13.50;99.90;;;;;;7336536;32;20188;-56
2023/05/22 04:19:47;;;;;;;26.92;21.17;;;13.50;99.90;;;;;;7331462;32;20103;-56
2023/05/22 04:23:49;;;;;;;26.35;22.20;;;13.50;99.90;;;;;;7330791;32;20194;-56
2023/05/22 04:27:51;;;;;;;27.60;22.37;;;13.50;99.90;;;;;;7327952;32;20148;-57
2023/05/22 04:31:54;;;;;;;27.73;22.45;;;13.60;99.90;;;;;;7332030;32;20234;-55
2023/05/22 04:35:56;;;;;;;27.33;21.17;;;13.60;99.90;;;;;;7320999;32;20129;-56
2023/05/22 04:40:05;;;;;;;24.55;20.75;;;13.60;99.90;;;;;;7325860;32;20156;-57
2023/05/22 04:44:06;;;;;;;28.27;21.55;;;13.60;99.90;;;;;;7331523;32;20162;-56
2023/05/22 04:48:10;;;;;;;24.67;21.33;;;13.60;99.90;;;;;;7332866;32;20395;-57
2023/05/22 04:52:12;;;;;;;23.83;20.42;;;13.70;99.90;;;;;;7330957;32;21765;-58
2023/05/22 04:56:14;;;;;;;24.33;21.10;;;13.80;99.90;;;;;;7326886;32;20119;-57
2023/05/22 05:00:28;;;;;;;30.27;22.02;;;13.80;99.90;;;;;;7329160;32;20258;-57
2023/05/22 05:04:30;;;;;;;22.37;19.23;;;13.80;99.90;;;;;;7334733;32;20131;-58
2023/05/22 05:08:32;;;;;;;30.90;25.10;;;13.80;99.90;;;;;;7337400;32;20173;-58
2023/05/22 05:12:34;;;;;;;26.23;22.83;;;13.90;99.90;;;;;;7326981;32;20149;-59
2023/05/22 05:16:36;;;;;;;26.35;22.05;;;13.90;99.90;;;;;;7329502;32;20108;-57
2023/05/22 05:20:38;;;;;;;27.58;21.02;;;13.90;99.90;;;;;;7329528;32;20178;-58
2023/05/22 05:24:40;;;;;;;28.42;21.40;;;14.00;99.90;;;;;;7307590;32;20121;-57
2023/05/22 05:28:42;;;;;;;27.65;22.35;;;14.20;99.90;;;;;;7328039;32;20091;-57
2023/05/22 05:32:44;;;;;;;27.87;22.95;;;14.30;99.90;;;;;;7325309;32;20693;-58
2023/05/22 05:36:46;;;;;;;36.70;30.30;;;14.30;99.90;;;;;;7328843;32;20142;-57
2023/05/22 05:40:48;;;;;;;27.08;22.73;;;14.40;99.90;;;;;;7333713;32;20149;-58
2023/05/22 05:44:50;;;;;;;26.48;21.35;;;14.50;99.90;;;;;;7328248;32;20104;-57
2023/05/22 05:48:51;;;;;;;23.62;20.85;;;14.60;99.90;;;;;;7328037;32;20137;-58
2023/05/22 05:52:53;;;;;;;25.12;22.37;;;14.80;99.90;;;;;;7331415;32;20571;-57
2023/05/22 05:56:55;;;;;;;26.05;23.02;;;14.80;99.90;;;;;;7324100;32;20854;-56
2023/05/22 06:00:57;;;;;;;26.70;21.40;;;15.00;99.90;;;;;;7323867;32;20116;-57
2023/05/22 06:04:59;;;;;;;32.53;23.12;;;15.10;99.90;;;;;;7334688;32;20380;-59
2023/05/22 06:09:02;;;;;;;25.50;21.50;;;15.30;99.90;;;;;;7312561;32;20664;-57
2023/05/22 06:13:05;;;;;;;30.92;25.00;;;15.50;99.90;;;;;;7322934;32;20146;-58
2023/05/22 06:17:09;;;;;;;38.10;33.38;;;15.90;99.90;;;;;;7323012;32;20091;-59
2023/05/22 06:21:11;;;;;;;43.67;34.90;;;16.40;99.90;;;;;;7327079;32;20215;-58
2023/05/22 06:25:13;;;;;;;44.97;38.03;;;16.70;99.90;;;;;;7311004;32;20536;-58
2023/05/22 06:29:15;;;;;;;43.03;36.95;;;16.70;99.90;;;;;;7322240;32;20125;-59
2023/05/22 06:33:17;;;;;;;44.72;37.92;;;16.80;99.90;;;;;;7322078;32;20161;-58
2023/05/22 06:37:19;;;;;;;47.80;37.75;;;16.80;99.90;;;;;;7320358;32;20909;-59
2023/05/22 06:41:21;;;;;;;47.62;39.08;;;16.90;99.90;;;;;;7332971;32;20100;-59
2023/05/22 06:45:23;;;;;;;52.05;43.83;;;17.10;99.90;;;;;;7329695;32;20210;-59
2023/05/22 06:49:25;;;;;;;58.08;45.20;;;17.00;99.90;;;;;;7312860;32;20122;-59
2023/05/22 06:53:27;;;;;;;56.65;45.60;;;17.30;99.90;;;;;;7325363;32;20716;-56
2023/05/22 06:57:32;;;;;;;51.85;45.70;;;17.40;99.90;;;;;;7328117;32;20229;-57
2023/05/22 07:01:34;;;;;;;60.28;48.78;;;17.60;99.90;;;;;;7322891;32;20171;-56
2023/05/22 07:05:36;;;;;;;58.03;47.60;;;17.80;99.90;;;;;;7328284;32;20187;-57
2023/05/22 07:09:38;;;;;;;53.45;43.90;;;18.00;99.90;;;;;;7326203;32;20245;-56
2023/05/22 07:13:40;;;;;;;57.62;46.35;;;18.00;99.90;;;;;;7324744;32;20304;-58
2023/05/22 07:17:42;;;;;;;57.80;48.47;;;18.00;99.90;;;;;;7321096;32;20438;-58
2023/05/22 07:21:44;;;;;;;56.05;47.83;;;18.10;99.90;;;;;;7322485;32;20103;-58
2023/05/22 07:25:45;;;;;;;53.72;47.13;;;18.00;99.90;;;;;;7324814;32;20122;-57
2023/05/22 07:29:47;;;;;;;55.92;47.35;;;18.10;99.90;;;;;;7322901;32;20201;-58
2023/05/22 07:33:49;;;;;;;54.03;46.20;;;18.00;99.90;;;;;;7326836;32;20226;-58
2023/05/22 07:37:51;;;;;;;57.13;48.47;;;18.00;99.90;;;;;;7314999;32;20218;-57
2023/05/22 07:41:53;;;;;;;59.08;50.40;;;18.00;99.90;;;;;;7327739;32;20126;-58
2023/05/22 07:45:57;;;;;;;68.30;55.88;;;18.00;99.90;;;;;;7332872;32;20505;-57
2023/05/22 07:50:02;;;;;;;66.87;55.33;;;18.00;99.90;;;;;;7329070;32;20231;-59
2023/05/22 07:54:04;;;;;;;70.12;58.20;;;17.90;99.90;;;;;;7318918;32;20119;-58
2023/05/22 07:58:07;;;;;;;68.07;54.13;;;17.90;99.90;;;;;;7323029;32;20259;-59
2023/05/22 08:02:08;;;;;;;66.05;53.40;;;17.80;99.90;;;;;;7311161;32;20186;-58
2023/05/22 08:06:11;;;;;;;76.12;58.08;;;17.70;99.90;;;;;;7325056;32;21132;-59
2023/05/22 08:10:15;;;;;;;79.78;59.80;;;17.70;99.90;;;;;;7330670;32;20188;-58
2023/05/22 08:14:17;;;;;;;74.07;59.00;;;17.70;99.90;;;;;;7324662;32;20165;-58
2023/05/22 08:18:21;;;;;;;75.75;58.03;;;17.80;99.90;;;;;;7319448;32;20187;-59
2023/05/22 08:22:23;;;;;;;84.28;61.25;;;17.60;99.90;;;;;;7334975;32;20565;-58
2023/05/22 08:26:25;;;;;;;87.75;64.22;;;17.50;99.90;;;;;;7332565;32;20223;-59
2023/05/22 08:30:26;;;;;;;80.00;60.35;;;17.50;99.90;;;;;;7340711;32;20680;-57
2023/05/22 08:34:28;;;;;;;79.07;59.28;;;17.50;99.90;;;;;;7331494;32;20226;-57
2023/05/22 08:38:30;;;;;;;77.35;57.22;;;17.40;99.90;;;;;;7334205;32;20125;-58
2023/05/22 08:42:32;;;;;;;79.65;62.08;;;17.40;99.90;;;;;;7327786;32;20267;-58
2023/05/22 08:46:36;;;;;;;78.12;60.88;;;17.30;99.90;;;;;;7334374;32;20122;-58
2023/05/22 08:50:43;;;;;;;62.38;49.63;;;17.30;99.90;;;;;;7326971;32;20131;-57
2023/05/22 08:54:51;;;;;;;63.78;50.78;;;17.40;99.90;;;;;;7326050;32;20166;-57
2023/05/22 08:58:54;;;;;;;60.33;48.72;;;17.30;99.90;;;;;;7334528;32;20123;-57
2023/05/22 09:02:56;;;;;;;54.60;45.00;;;17.50;99.90;;;;;;7329576;32;20468;-58
2023/05/22 09:07:04;;;;;;;58.72;47.05;;;17.50;99.90;;;;;;7327925;32;20320;-57
2023/05/22 09:11:06;;;;;;;55.00;46.05;;;17.50;99.90;;;;;;7334717;32;20108;-58
2023/05/22 09:15:09;;;;;;;53.50;44.40;;;17.50;99.90;;;;;;7334903;32;20091;-58
2023/05/22 09:19:13;;;;;;;54.30;44.53;;;17.70;99.90;;;;;;7327462;32;20234;-59
2023/05/22 09:23:19;;;;;;;55.40;42.42;;;17.90;99.90;;;;;;7327073;32;20103;-58
2023/05/22 09:27:22;;;;;;;50.20;42.60;;;18.00;99.90;;;;;;7327351;32;20116;-58
2023/05/22 09:31:24;;;;;;;49.28;40.72;;;18.10;99.90;;;;;;7331338;32;20278;-57
2023/05/22 09:35:26;;;;;;;51.05;42.25;;;18.10;99.90;;;;;;7330616;32;20156;-57
2023/05/22 09:39:39;;;;;;;50.38;42.42;;;18.20;99.90;;;;;;7314984;32;20140;-58
2023/05/22 09:43:49;;;;;;;50.72;42.42;;;18.10;99.90;;;;;;7334523;32;20569;-59
2023/05/22 09:47:51;;;;;;;52.88;43.75;;;18.10;99.90;;;;;;7328331;32;20544;-59
2023/05/22 09:51:55;;;;;;;51.67;40.47;;;18.10;99.90;;;;;;7326939;32;20119;-58
2023/05/22 09:55:58;;;;;;;46.45;41.25;;;18.20;99.90;;;;;;7325923;32;20108;-57
2023/05/22 10:00:10;;;;;;;51.92;42.00;;;18.30;99.90;;;;;;7326337;32;20220;-59
2023/05/22 10:04:14;;;;;;;50.53;42.30;;;18.50;99.90;;;;;;7336162;32;20129;-58
2023/05/22 10:08:22;;;;;;;54.05;41.70;;;18.60;99.90;;;;;;7332986;32;20095;-58
2023/05/22 10:12:26;;;;;;;57.55;41.15;;;18.60;99.90;;;;;;7335296;32;20131;-58
2023/05/22 10:16:29;;;;;;;49.30;41.03;;;18.60;99.90;;;;;;7328847;32;20730;-58
2023/05/22 10:20:31;;;;;;;52.65;43.10;;;18.60;99.90;;;;;;7328054;32;20155;-59
2023/05/22 10:24:33;;;;;;;45.05;39.35;;;18.80;99.90;;;;;;7333074;32;20201;-57
2023/05/22 10:28:41;;;;;;;48.35;40.92;;;18.60;99.90;;;;;;7326186;32;20104;-58
2023/05/22 10:32:56;;;;;;;49.58;39.65;;;18.70;99.90;;;;;;7321712;32;20108;-59
2023/05/22 10:37:25;;;;;;;46.97;39.08;;;18.80;99.90;;;;;;7327612;32;20153;-58
2023/05/22 10:41:27;;;;;;;50.85;39.03;;;19.00;99.90;;;;;;7324105;32;20205;-58
2023/05/22 10:45:30;;;;;;;44.50;36.35;;;19.10;99.90;;;;;;7322901;32;20227;-58
2023/05/22 10:49:32;;;;;;;45.75;37.88;;;19.30;99.90;;;;;;7330279;32;20099;-58
2023/05/22 10:53:34;;;;;;;44.13;36.85;;;19.30;99.90;;;;;;7322385;32;20595;-61
2023/05/22 10:57:38;;;;;;;44.35;35.63;;;19.70;99.90;;;;;;7326077;32;20103;-57
2023/05/22 11:01:40;;;;;;;42.08;36.53;;;20.10;99.90;;;;;;7328659;32;20207;-58
2023/05/22 11:05:41;;;;;;;40.40;34.47;;;20.50;99.90;;;;;;7316527;32;20108;-58
2023/05/22 11:09:47;;;;;;;37.25;31.73;;;20.80;99.90;;;;;;7328228;32;20165;-59
2023/05/22 11:14:00;;;;;;;40.38;32.92;;;20.90;99.90;;;;;;7328860;32;20232;-60
2023/05/22 11:18:02;;;;;;;42.72;34.25;;;21.30;99.90;;;;;;7324017;32;20193;-58
2023/05/22 11:22:04;;;;;;;40.50;32.03;;;21.80;99.90;;;;;;7325817;32;20637;-59
2023/05/22 11:26:23;;;;;;;38.45;34.22;;;22.20;99.90;;;;;;7329061;32;20115;-58
2023/05/22 11:30:31;;;;;;;40.08;34.47;;;22.40;99.90;;;;;;7328384;32;20620;-58
2023/05/22 11:34:33;;;;;;;42.85;35.85;;;22.50;99.90;;;;;;7338160;32;20153;-59
2023/05/22 11:38:36;;;;;;;38.92;34.70;;;22.30;99.90;;;;;;7331596;32;20150;-58
2023/05/22 11:42:38;;;;;;;39.97;34.03;;;22.40;99.90;;;;;;7325286;32;20154;-58
2023/05/22 11:46:40;;;;;;;40.35;35.35;;;22.40;99.90;;;;;;7329964;32;20216;-58
2023/05/22 11:50:42;;;;;;;43.85;34.78;;;22.80;99.90;;;;;;7337017;32;20122;-58
2023/05/22 11:54:45;;;;;;;43.42;38.20;;;22.90;99.90;;;;;;7337429;32;20104;-58
2023/05/22 11:58:48;;;;;;;40.38;33.72;;;22.90;99.90;;;;;;7337428;32;20175;-58
2023/05/22 12:02:50;;;;;;;43.67;36.58;;;23.60;99.90;;;;;;7336588;32;20225;-58
2023/05/22 12:06:53;;;;;;;39.72;33.95;;;23.80;99.90;;;;;;7334050;32;20657;-59
2023/05/22 12:10:55;;;;;;;40.58;35.00;;;24.30;99.90;;;;;;7329864;32;20748;-58
2023/05/22 12:14:57;;;;;;;43.70;35.08;;;24.60;99.90;;;;;;7330852;32;20135;-58
2023/05/22 12:19:02;;;;;;;40.85;36.03;;;24.60;99.90;;;;;;7334141;32;20257;-58
2023/05/22 12:23:09;;;;;;;41.53;35.50;;;25.00;99.90;;;;;;7331849;32;20198;-59
2023/05/22 12:27:12;;;;;;;44.08;35.85;;;24.60;99.90;;;;;;7337567;32;20792;-58
2023/05/22 12:31:21;;;;;;;48.67;38.25;;;24.50;99.90;;;;;;7336130;32;20218;-58
2023/05/22 12:35:24;;;;;;;39.53;34.33;;;24.50;99.90;;;;;;7341881;32;20126;-58
2023/05/22 12:39:27;;;;;;;43.92;34.83;;;24.60;99.90;;;;;;7336238;32;20318;-58
2023/05/22 12:43:29;;;;;;;50.00;38.10;;;24.70;99.90;;;;;;7340560;32;20122;-57
2023/05/22 12:47:31;;;;;;;45.70;38.65;;;24.50;99.90;;;;;;7335131;32;20209;-58
2023/05/22 12:51:33;;;;;;;45.67;37.40;;;24.40;99.90;;;;;;7334727;32;20216;-57
2023/05/22 12:55:36;;;;;;;43.28;38.55;;;24.70;99.90;;;;;;7338621;32;20130;-58
2023/05/22 12:59:38;;;;;;;44.17;39.35;;;24.70;99.90;;;;;;7334140;32;20226;-58
2023/05/22 13:03:40;;;;;;;45.50;38.90;;;24.30;99.90;;;;;;7338059;32;20174;-57
2023/05/22 13:07:42;;;;;;;45.28;36.63;;;24.50;99.90;;;;;;7331037;32;20210;-59
2023/05/22 13:11:43;;;;;;;46.78;35.47;;;24.70;99.90;;;;;;7336146;32;20560;-57
2023/05/22 13:15:45;;;;;;;41.35;36.90;;;25.10;99.90;;;;;;7337313;32;20178;-58
2023/05/22 13:19:47;;;;;;;42.33;36.70;;;24.90;99.90;;;;;;7322921;32;20725;-58
2023/05/22 13:23:49;;;;;;;44.13;34.63;;;24.80;99.90;;;;;;7332087;32;20108;-58
2023/05/22 13:27:51;;;;;;;41.30;33.28;;;24.90;99.90;;;;;;7334001;32;20299;-58
2023/05/22 13:31:53;;;;;;;35.95;31.40;;;24.80;99.90;;;;;;7332649;32;20107;-58
2023/05/22 13:35:54;;;;;;;35.05;30.60;;;25.00;99.90;;;;;;7333261;32;20415;-56
2023/05/22 13:39:56;;;;;;;35.78;30.33;;;25.10;99.90;;;;;;7318304;32;20175;-58
2023/05/22 13:43:58;;;;;;;35.55;30.33;;;24.80;99.90;;;;;;7332717;32;20111;-58
2023/05/22 13:47:59;;;;;;;35.45;29.58;;;24.60;99.90;;;;;;7314478;32;20107;-57
2023/05/22 13:52:01;;;;;;;34.88;29.60;;;24.90;99.90;;;;;;7332482;32;20198;-58
2023/05/22 13:56:03;;;;;;;33.80;29.02;;;25.20;99.90;;;;;;7329511;32;20194;-57
2023/05/22 14:00:07;;;;;;;33.33;28.58;;;25.50;99.90;;;;;;7329856;32;20262;-57
2023/05/22 14:04:09;;;;;;;37.58;30.62;;;25.70;99.90;;;;;;7328084;32;20119;-58
2023/05/22 14:08:12;;;;;;;32.13;24.85;;;25.30;99.90;;;;;;7330840;32;20103;-58
2023/05/22 14:12:14;;;;;;;33.40;29.65;;;25.80;99.90;;;;;;7333849;32;20174;-58
2023/05/22 14:16:15;;;;;;;38.55;31.33;;;25.70;99.90;;;;;;7324807;32;20156;-58
2023/05/22 14:20:17;;;;;;;41.30;31.50;;;25.80;99.90;;;;;;7327453;32;20364;-58
2023/05/22 14:24:19;;;;;;;38.97;30.15;;;26.00;99.90;;;;;;7332065;32;20150;-59
2023/05/22 14:28:21;;;;;;;38.78;30.23;;;25.90;99.90;;;;;;7327023;32;20359;-58
2023/05/22 14:32:23;;;;;;;40.95;32.13;;;26.20;99.90;;;;;;7328603;32;20226;-57
2023/05/22 14:36:25;;;;;;;41.97;32.22;;;26.10;99.90;;;;;;7331272;32;20204;-59
2023/05/22 14:40:26;;;;;;;43.87;33.38;;;26.10;99.90;;;;;;7330626;32;20118;-58
2023/05/22 14:44:28;;;;;;;41.45;30.85;;;26.40;99.90;;;;;;7314983;32;20130;-58
2023/05/22 14:48:30;;;;;;;39.95;34.65;;;26.50;99.90;;;;;;7326517;32;20195;-58
2023/05/22 14:52:32;;;;;;;46.30;34.35;;;26.50;99.90;;;;;;7328377;32;20547;-58
2023/05/22 14:56:34;;;;;;;47.92;34.78;;;26.10;99.90;;;;;;7331335;32;20156;-58
2023/05/22 15:00:35;;;;;;;49.47;36.53;;;26.20;99.90;;;;;;7331631;32;20159;-58
2023/05/22 15:04:37;;;;;;;40.63;32.13;;;26.60;99.90;;;;;;7312592;32;20628;-58
2023/05/22 15:08:39;;;;;;;46.90;32.33;;;26.50;99.90;;;;;;7333835;32;20174;-58
2023/05/22 15:12:41;;;;;;;52.05;37.45;;;26.10;99.90;;;;;;7325843;32;20141;-59
2023/05/22 15:16:43;;;;;;;58.95;41.67;;;25.50;99.90;;;;;;7316408;32;20261;-58
2023/05/22 15:20:45;;;;;;;58.08;41.22;;;25.00;99.90;;;;;;7327054;32;21580;-58
2023/05/22 15:24:47;;;;;;;59.05;41.55;;;24.60;99.90;;;;;;7327809;32;20099;-58
2023/05/22 15:28:49;;;;;;;61.05;41.97;;;24.40;99.90;;;;;;7335085;32;20107;-59
2023/05/22 15:32:51;;;;;;;62.50;42.85;;;24.40;99.90;;;;;;7323124;32;20127;-57
2023/05/22 15:36:53;;;;;;;63.58;43.47;;;24.00;99.90;;;;;;7321128;32;20241;-59
2023/05/22 15:40:55;;;;;;;64.18;42.90;;;23.80;99.90;;;;;;7326113;32;20158;-59
2023/05/22 15:44:58;;;;;;;66.50;44.95;;;23.80;99.90;;;;;;7318098;32;20158;-58
2023/05/22 15:49:00;;;;;;;66.70;44.38;;;23.80;99.90;;;;;;7323237;32;20108;-58
2023/05/22 15:53:02;;;;;;;62.67;42.70;;;23.70;99.90;;;;;;7323768;32;20572;-58
2023/05/22 15:57:04;;;;;;;65.53;44.88;;;23.50;99.90;;;;;;7324261;32;20115;-59
2023/05/22 16:01:06;;;;;;;58.35;43.30;;;23.40;99.90;;;;;;7331681;32;20195;-59
2023/05/22 16:05:08;;;;;;;58.85;40.88;;;23.40;99.90;;;;;;7316157;32;20885;-58
2023/05/22 16:09:11;;;;;;;63.95;41.97;;;23.20;99.90;;;;;;7327252;32;20216;-58
2023/05/22 16:13:13;;;;;;;52.08;38.80;;;23.30;99.90;;;;;;7332383;32;20191;-59
2023/05/22 16:17:14;;;;;;;47.67;35.85;;;23.20;99.90;;;;;;7328028;32;20188;-59
2023/05/22 16:21:16;;;;;;;44.22;35.13;;;23.40;99.90;;;;;;7337044;32;20095;-59
2023/05/22 16:25:18;;;;;;;45.72;33.47;;;23.40;99.90;;;;;;7335800;32;20122;-58
2023/05/22 16:29:20;;;;;;;39.42;30.60;;;23.40;99.90;;;;;;7326832;32;20126;-58
2023/05/22 16:33:21;;;;;;;40.08;30.62;;;23.40;99.90;;;;;;7320627;32;20146;-59
2023/05/22 16:37:23;;;;;;;38.50;28.98;;;23.40;99.90;;;;;;7322163;32;20454;-58
2023/05/22 16:41:25;;;;;;;38.97;28.50;;;23.10;99.90;;;;;;7325667;32;20126;-57
2023/05/22 16:45:27;;;;;;;39.45;28.23;;;23.00;99.90;;;;;;7331153;32;20163;-57
2023/05/22 16:49:29;;;;;;;37.05;28.25;;;22.90;99.90;;;;;;7316521;32;20173;-57
2023/05/22 16:53:31;;;;;;;25.55;22.42;;;22.80;99.90;;;;;;7333978;32;20133;-58
2023/05/22 16:57:32;;;;;;;32.50;23.62;;;22.80;99.90;;;;;;7325929;32;20131;-57
2023/05/22 17:01:34;;;;;;;22.98;18.05;;;22.80;99.90;;;;;;7304463;32;20091;-57
2023/05/22 17:05:36;;;;;;;20.73;15.05;;;22.30;99.90;;;;;;7327536;32;20807;-58
2023/05/22 17:09:39;;;;;;;17.00;12.95;;;22.20;99.90;;;;;;7310166;32;20116;-57
2023/05/22 17:13:41;;;;;;;15.70;13.10;;;22.20;99.90;;;;;;7326593;32;20147;-58
2023/05/22 17:17:43;;;;;;;13.02;10.93;;;21.80;99.90;;;;;;7327073;32;20467;-58
2023/05/22 17:21:44;;;;;;;11.98;10.63;;;21.70;99.90;;;;;;7324902;32;20115;-57
2023/05/22 17:25:46;;;;;;;14.15;11.43;;;21.50;99.90;;;;;;7330215;32;20108;-57
2023/05/22 17:29:48;;;;;;;14.57;11.20;;;21.30;99.90;;;;;;7307096;32;20111;-58
2023/05/22 17:33:50;;;;;;;15.05;11.15;;;21.10;99.90;;;;;;7313097;32;20099;-60
2023/05/22 17:37:52;;;;;;;16.10;10.90;;;21.00;99.90;;;;;;7329161;32;20195;-59
2023/05/22 17:41:53;;;;;;;15.98;10.60;;;20.80;99.90;;;;;;7319078;32;20112;-61
2023/05/22 17:45:55;;;;;;;14.95;11.25;;;20.80;99.90;;;;;;7331240;32;20317;-59
2023/05/22 17:49:57;;;;;;;12.80;11.48;;;20.70;99.90;;;;;;7332196;32;20321;-59
2023/05/22 17:53:59;;;;;;;14.05;10.52;;;20.40;99.90;;;;;;7330329;32;20175;-59
2023/05/22 17:58:01;;;;;;;16.95;11.77;;;20.30;99.90;;;;;;7332595;32;20434;-62
2023/05/22 18:02:02;;;;;;;18.10;11.45;;;20.10;99.90;;;;;;7333043;32;20198;-61
2023/05/22 18:06:05;;;;;;;11.52;10.18;;;19.80;99.90;;;;;;7331225;32;20254;-61
2023/05/22 18:10:07;;;;;;;14.52;11.00;;;19.60;99.90;;;;;;7325364;32;20107;-61
2023/05/22 18:14:09;;;;;;;13.98;11.12;;;19.50;99.90;;;;;;7319722;32;20149;-58
2023/05/22 18:18:11;;;;;;;15.35;11.65;;;19.40;99.90;;;;;;7324467;32;20214;-58
2023/05/22 18:22:14;;;;;;;14.90;11.05;;;19.40;99.90;;;;;;7332562;32;20104;-58
2023/05/22 18:26:15;;;;;;;14.93;12.25;;;19.20;99.90;;;;;;7318615;32;20480;-57
2023/05/22 18:30:17;;;;;;;16.80;13.20;;;19.20;99.90;;;;;;7332333;32;20164;-57
2023/05/22 18:34:19;;;;;;;15.70;12.02;;;19.20;99.90;;;;;;7326861;32;20133;-58
2023/05/22 18:38:21;;;;;;;13.73;12.20;;;19.00;99.90;;;;;;7317576;32;20482;-58
2023/05/22 18:42:23;;;;;;;15.23;12.32;;;18.90;99.90;;;;;;7328478;32;22805;-58
2023/05/22 18:46:24;;;;;;;16.12;11.77;;;18.90;99.90;;;;;;7318728;32;20615;-58
2023/05/22 18:50:26;;;;;;;17.12;13.15;;;18.70;99.90;;;;;;7330331;32;20100;-57
2023/05/22 18:54:28;;;;;;;16.05;13.23;;;18.80;99.90;;;;;;7322610;32;20723;-57
2023/05/22 18:58:30;;;;;;;14.40;12.10;;;18.80;99.90;;;;;;7327989;32;20811;-58
2023/05/22 19:02:32;;;;;;;18.37;13.90;;;18.70;99.90;;;;;;7333994;32;20482;-58
2023/05/22 19:06:34;;;;;;;19.08;15.07;;;18.70;99.90;;;;;;7326824;32;20122;-59
2023/05/22 19:10:36;;;;;;;16.60;13.60;;;18.70;99.90;;;;;;7311400;32;20142;-56
2023/05/22 19:14:38;;;;;;;14.87;13.27;;;18.60;99.90;;;;;;7321820;32;20199;-57
2023/05/22 19:18:40;;;;;;;17.30;13.50;;;18.80;99.90;;;;;;7328647;32;20096;-56
2023/05/22 19:22:42;;;;;;;18.87;14.48;;;18.70;99.90;;;;;;7341201;32;20139;-58
2023/05/22 19:26:43;;;;;;;16.42;13.50;;;18.60;99.90;;;;;;7327875;32;20127;-58
2023/05/22 19:30:45;;;;;;;14.73;11.95;;;18.70;99.90;;;;;;7310833;32;20210;-57
2023/05/22 19:34:48;;;;;;;14.85;11.18;;;18.70;99.90;;;;;;7326009;32;20776;-57
2023/05/22 19:38:49;;;;;;;15.88;10.80;;;18.60;99.90;;;;;;7326755;32;20126;-56
2023/05/22 19:42:54;;;;;;;12.70;9.38;;;18.60;99.90;;;;;;7326393;32;20103;-57
2023/05/22 19:46:56;;;;;;;15.23;10.25;;;18.40;99.90;;;;;;7312306;32;20096;-55
2023/05/22 19:50:58;;;;;;;13.10;9.18;;;18.30;99.90;;;;;;7328942;32;20311;-55
2023/05/22 19:55:00;;;;;;;12.13;8.43;;;18.30;99.90;;;;;;7326438;32;20582;-55
2023/05/22 19:59:01;;;;;;;8.15;7.35;;;18.20;99.90;;;;;;7325864;32;20198;-56
2023/05/22 20:03:03;;;;;;;10.52;6.95;;;18.20;99.90;;;;;;7329120;32;20212;-56
2023/05/22 20:07:06;;;;;;;7.47;6.70;;;18.00;99.90;;;;;;7325140;32;20129;-56
2023/05/22 20:11:08;;;;;;;10.52;6.50;;;17.90;99.90;;;;;;7329681;32;20237;-55
2023/05/22 20:15:13;;;;;;;8.90;6.95;;;17.80;99.90;;;;;;7331925;32;20118;-55
2023/05/22 20:19:16;;;;;;;10.50;7.45;;;17.60;99.90;;;;;;7342144;32;20127;-56
2023/05/22 20:23:18;;;;;;;8.57;7.00;;;17.50;99.90;;;;;;7332045;32;20149;-55
2023/05/22 20:27:20;;;;;;;9.77;7.78;;;17.60;99.90;;;;;;7336618;32;20201;-55
2023/05/22 20:31:21;;;;;;;8.23;6.53;;;17.50;99.90;;;;;;7330927;32;20433;-56
2023/05/22 20:35:25;;;;;;;8.88;6.15;;;17.40;99.90;;;;;;7331938;32;20246;-56